East Meadow, New York
Current Conditions -  °F | °C
As of 10:53 AM on Wednesday 28 Jan 2015 (Local Time) from KFRG Reporting Station
Clear Clear  
Wind Chill: 11°   Ceiling: Unl
Heat Index: 24°   Visibility: 10mi
Dew Point:   Wind: 17mph
Humidity: 46%   Direction: 330°NNW
Pressure: 30.04"   Gusts: 23mph
Location:  40.71°N, 73.54°W
Report Text: KFRG 281553Z 33015G20KT 10SM CLR M04/M14 A3004 RMK AO2 SLP175 T10441144
Loading
Personal Weather Stations






























Interactive Weather Map New forecast layout! Learn more

10-Day Weather Forecast

Advertisements
Track Severe Weather on mobile